Terminal Aerodrome Forecast
Issued by NWS

Home | Current Version | Previous Version | Text Only | Print | Product List | Glossary On
Versions: 1 2 3 4 5 6 7 8 9 10 11 12
000
FTUS46 KMTR 191100
TAFOAK
TAF
KOAK 191139Z 1912/2018 VRB03KT P6SM BKN009
     FM191600 VRB03KT P6SM FEW010
     FM191900 28008KT P6SM FEW010
     FM192300 30012KT P6SM FEW010
     FM200300 28007KT P6SM FEW010
     FM201000 31004KT P6SM BKN015=

USA.gov is the U.S. government's official web portal to all federal, state and local government web resources and services.